sensor_id;sensor_type;location;lat;lon;timestamp;P1;durP1;ratioP1;P2;durP2;ratioP2
26965;SDS011;14522;52.068;4.414;2023-11-18T00:00:02;4.80;;;2.90;;
26965;SDS011;14522;52.068;4.414;2023-11-18T00:02:37;11.52;;;3.72;;
26965;SDS011;14522;52.068;4.414;2023-11-18T00:05:04;6.50;;;3.95;;
26965;SDS011;14522;52.068;4.414;2023-11-18T00:07:30;10.88;;;4.18;;
26965;SDS011;14522;52.068;4.414;2023-11-18T00:09:58;7.10;;;3.20;;
26965;SDS011;14522;52.068;4.414;2023-11-18T00:12:25;6.85;;;3.55;;
26965;SDS011;14522;52.068;4.414;2023-11-18T00:14:51;9.23;;;3.80;;
26965;SDS011;14522;52.068;4.414;2023-11-18T00:17:18;7.78;;;3.80;;
26965;SDS011;14522;52.068;4.414;2023-11-18T00:19:46;9.18;;;4.57;;
26965;SDS011;14522;52.068;4.414;2023-11-18T00:22:13;8.45;;;4.05;;
26965;SDS011;14522;52.068;4.414;2023-11-18T00:24:40;6.65;;;3.25;;
26965;SDS011;14522;52.068;4.414;2023-11-18T00:27:06;13.10;;;4.97;;
26965;SDS011;14522;52.068;4.414;2023-11-18T00:29:33;10.60;;;4.88;;
26965;SDS011;14522;52.068;4.414;2023-11-18T00:32:00;7.68;;;4.05;;
26965;SDS011;14522;52.068;4.414;2023-11-18T00:34:26;7.60;;;3.88;;
26965;SDS011;14522;52.068;4.414;2023-11-18T00:36:59;6.65;;;3.97;;
26965;SDS011;14522;52.068;4.414;2023-11-18T00:39:26;6.93;;;3.85;;
26965;SDS011;14522;52.068;4.414;2023-11-18T00:41:55;9.32;;;4.40;;
26965;SDS011;14522;52.068;4.414;2023-11-18T00:44:22;10.02;;;4.18;;
26965;SDS011;14522;52.068;4.414;2023-11-18T00:46:49;7.18;;;3.90;;
26965;SDS011;14522;52.068;4.414;2023-11-18T00:49:16;8.30;;;3.70;;
26965;SDS011;14522;52.068;4.414;2023-11-18T00:51:42;5.97;;;3.50;;
26965;SDS011;14522;52.068;4.414;2023-11-18T00:54:09;6.80;;;4.00;;
26965;SDS011;14522;52.068;4.414;2023-11-18T00:56:35;8.02;;;3.25;;
26965;SDS011;14522;52.068;4.414;2023-11-18T00:59:02;5.82;;;3.17;;
26965;SDS011;14522;52.068;4.414;2023-11-18T01:01:29;6.28;;;3.53;;
26965;SDS011;14522;52.068;4.414;2023-11-18T01:03:55;8.73;;;3.90;;
26965;SDS011;14522;52.068;4.414;2023-11-18T01:06:26;8.57;;;4.13;;
26965;SDS011;14522;52.068;4.414;2023-11-18T01:08:52;7.30;;;3.83;;
26965;SDS011;14522;52.068;4.414;2023-11-18T01:11:19;7.55;;;3.40;;
26965;SDS011;14522;52.068;4.414;2023-11-18T01:13:46;6.50;;;3.92;;
26965;SDS011;14522;52.068;4.414;2023-11-18T01:16:13;7.82;;;3.10;;
26965;SDS011;14522;52.068;4.414;2023-11-18T01:18:41;5.82;;;3.30;;
26965;SDS011;14522;52.068;4.414;2023-11-18T01:21:08;6.85;;;3.03;;
26965;SDS011;14522;52.068;4.414;2023-11-18T01:23:38;5.97;;;3.42;;
26965;SDS011;14522;52.068;4.414;2023-11-18T01:26:05;8.52;;;3.05;;
26965;SDS011;14522;52.068;4.414;2023-11-18T01:28:32;6.95;;;3.70;;
26965;SDS011;14522;52.068;4.414;2023-11-18T01:31:05;7.03;;;4.13;;
26965;SDS011;14522;52.068;4.414;2023-11-18T01:33:39;8.68;;;3.65;;
26965;SDS011;14522;52.068;4.414;2023-11-18T01:36:09;6.57;;;3.47;;
26965;SDS011;14522;52.068;4.414;2023-11-18T01:38:36;7.55;;;3.88;;
26965;SDS011;14522;52.068;4.414;2023-11-18T01:41:04;10.15;;;3.85;;
26965;SDS011;14522;52.068;4.414;2023-11-18T01:43:31;7.78;;;3.55;;
26965;SDS011;14522;52.068;4.414;2023-11-18T01:46:04;9.30;;;4.53;;
26965;SDS011;14522;52.068;4.414;2023-11-18T01:48:31;7.18;;;3.92;;
26965;SDS011;14522;52.068;4.414;2023-11-18T01:50:59;5.43;;;3.55;;
26965;SDS011;14522;52.068;4.414;2023-11-18T01:53:27;7.72;;;3.17;;
26965;SDS011;14522;52.068;4.414;2023-11-18T01:55:54;8.63;;;3.67;;
26965;SDS011;14522;52.068;4.414;2023-11-18T01:58:21;8.43;;;4.13;;
26965;SDS011;14522;52.068;4.414;2023-11-18T02:00:49;5.78;;;3.80;;
26965;SDS011;14522;52.068;4.414;2023-11-18T02:03:17;8.63;;;3.75;;
26965;SDS011;14522;52.068;4.414;2023-11-18T02:05:44;8.73;;;3.50;;
26965;SDS011;14522;52.068;4.414;2023-11-18T02:08:10;8.40;;;4.18;;
26965;SDS011;14522;52.068;4.414;2023-11-18T02:10:47;7.30;;;3.70;;
26965;SDS011;14522;52.068;4.414;2023-11-18T02:13:33;9.43;;;3.83;;
26965;SDS011;14522;52.068;4.414;2023-11-18T02:20:54;7.05;;;3.63;;
26965;SDS011;14522;52.068;4.414;2023-11-18T02:23:23;6.47;;;3.65;;
26965;SDS011;14522;52.068;4.414;2023-11-18T02:25:50;8.27;;;4.13;;
26965;SDS011;14522;52.068;4.414;2023-11-18T02:28:16;9.70;;;4.57;;
26965;SDS011;14522;52.068;4.414;2023-11-18T02:30:44;7.85;;;4.10;;
26965;SDS011;14522;52.068;4.414;2023-11-18T02:33:15;9.02;;;4.65;;
26965;SDS011;14522;52.068;4.414;2023-11-18T02:35:47;11.45;;;4.05;;
26965;SDS011;14522;52.068;4.414;2023-11-18T02:38:16;10.73;;;4.50;;
26965;SDS011;14522;52.068;4.414;2023-11-18T02:40:44;8.38;;;4.70;;
26965;SDS011;14522;52.068;4.414;2023-11-18T02:43:11;12.35;;;5.35;;
26965;SDS011;14522;52.068;4.414;2023-11-18T02:45:38;12.65;;;4.82;;
26965;SDS011;14522;52.068;4.414;2023-11-18T02:48:06;12.20;;;4.57;;
26965;SDS011;14522;52.068;4.414;2023-11-18T02:50:33;15.15;;;5.28;;
26965;SDS011;14522;52.068;4.414;2023-11-18T02:53:01;10.88;;;5.20;;
26965;SDS011;14522;52.068;4.414;2023-11-18T02:55:29;11.38;;;5.38;;
26965;SDS011;14522;52.068;4.414;2023-11-18T02:57:55;12.05;;;5.55;;
26965;SDS011;14522;52.068;4.414;2023-11-18T03:00:23;11.70;;;4.90;;
26965;SDS011;14522;52.068;4.414;2023-11-18T03:02:49;10.98;;;5.07;;
26965;SDS011;14522;52.068;4.414;2023-11-18T03:05:18;15.10;;;5.38;;
26965;SDS011;14522;52.068;4.414;2023-11-18T03:07:45;10.27;;;5.32;;
26965;SDS011;14522;52.068;4.414;2023-11-18T03:10:16;11.45;;;4.43;;
26965;SDS011;14522;52.068;4.414;2023-11-18T03:12:50;10.45;;;3.92;;
26965;SDS011;14522;52.068;4.414;2023-11-18T03:15:19;8.60;;;4.28;;
26965;SDS011;14522;52.068;4.414;2023-11-18T03:17:46;10.32;;;4.68;;
26965;SDS011;14522;52.068;4.414;2023-11-18T03:20:14;12.43;;;4.65;;
26965;SDS011;14522;52.068;4.414;2023-11-18T03:22:43;11.57;;;4.05;;
26965;SDS011;14522;52.068;4.414;2023-11-18T03:25:11;9.43;;;4.10;;
26965;SDS011;14522;52.068;4.414;2023-11-18T03:27:38;9.75;;;4.50;;
26965;SDS011;14522;52.068;4.414;2023-11-18T03:30:05;9.00;;;4.22;;
26965;SDS011;14522;52.068;4.414;2023-11-18T03:32:33;9.38;;;3.70;;
26965;SDS011;14522;52.068;4.414;2023-11-18T03:34:59;6.97;;;3.72;;
26965;SDS011;14522;52.068;4.414;2023-11-18T03:37:26;7.40;;;3.65;;
26965;SDS011;14522;52.068;4.414;2023-11-18T03:39:53;11.10;;;3.72;;
26965;SDS011;14522;52.068;4.414;2023-11-18T03:42:19;6.60;;;3.63;;
26965;SDS011;14522;52.068;4.414;2023-11-18T03:44:46;9.55;;;3.85;;
26965;SDS011;14522;52.068;4.414;2023-11-18T03:47:14;7.25;;;3.85;;
26965;SDS011;14522;52.068;4.414;2023-11-18T03:49:40;7.85;;;3.33;;
26965;SDS011;14522;52.068;4.414;2023-11-18T03:52:07;8.82;;;4.20;;
26965;SDS011;14522;52.068;4.414;2023-11-18T03:54:33;10.13;;;2.83;;
26965;SDS011;14522;52.068;4.414;2023-11-18T03:57:00;10.93;;;3.95;;
26965;SDS011;14522;52.068;4.414;2023-11-18T03:59:26;5.45;;;2.83;;
26965;SDS011;14522;52.068;4.414;2023-11-18T04:01:53;9.77;;;3.75;;
26965;SDS011;14522;52.068;4.414;2023-11-18T04:04:19;7.25;;;2.92;;
26965;SDS011;14522;52.068;4.414;2023-11-18T04:06:46;6.72;;;2.90;;
26965;SDS011;14522;52.068;4.414;2023-11-18T04:09:12;10.27;;;3.60;;
26965;SDS011;14522;52.068;4.414;2023-11-18T04:11:40;6.85;;;3.40;;
26965;SDS011;14522;52.068;4.414;2023-11-18T04:14:07;8.48;;;3.92;;
26965;SDS011;14522;52.068;4.414;2023-11-18T04:16:34;8.35;;;4.22;;
26965;SDS011;14522;52.068;4.414;2023-11-18T04:19:00;8.90;;;3.22;;
26965;SDS011;14522;52.068;4.414;2023-11-18T04:21:27;7.80;;;3.53;;
26965;SDS011;14522;52.068;4.414;2023-11-18T04:23:53;6.95;;;3.35;;
26965;SDS011;14522;52.068;4.414;2023-11-18T04:26:21;9.38;;;3.30;;
26965;SDS011;14522;52.068;4.414;2023-11-18T04:28:47;5.75;;;4.00;;
26965;SDS011;14522;52.068;4.414;2023-11-18T04:31:17;8.57;;;3.53;;
26965;SDS011;14522;52.068;4.414;2023-11-18T04:33:43;14.23;;;4.93;;
26965;SDS011;14522;52.068;4.414;2023-11-18T04:36:10;13.20;;;4.38;;
26965;SDS011;14522;52.068;4.414;2023-11-18T04:38:36;10.90;;;4.40;;
26965;SDS011;14522;52.068;4.414;2023-11-18T04:41:03;7.53;;;3.83;;
26965;SDS011;14522;52.068;4.414;2023-11-18T04:43:30;9.77;;;4.85;;
26965;SDS011;14522;52.068;4.414;2023-11-18T04:46:10;7.65;;;3.60;;
26965;SDS011;14522;52.068;4.414;2023-11-18T04:48:37;10.93;;;4.10;;
26965;SDS011;14522;52.068;4.414;2023-11-18T04:51:08;8.07;;;3.60;;
26965;SDS011;14522;52.068;4.414;2023-11-18T04:53:34;8.63;;;3.97;;
26965;SDS011;14522;52.068;4.414;2023-11-18T04:56:01;11.55;;;4.85;;
26965;SDS011;14522;52.068;4.414;2023-11-18T04:58:27;8.90;;;3.42;;
26965;SDS011;14522;52.068;4.414;2023-11-18T05:00:54;11.07;;;5.10;;
26965;SDS011;14522;52.068;4.414;2023-11-18T05:03:21;9.30;;;4.32;;
26965;SDS011;14522;52.068;4.414;2023-11-18T05:05:48;9.15;;;4.60;;
26965;SDS011;14522;52.068;4.414;2023-11-18T05:08:20;9.50;;;3.70;;
26965;SDS011;14522;52.068;4.414;2023-11-18T05:10:48;11.95;;;4.60;;
26965;SDS011;14522;52.068;4.414;2023-11-18T05:13:15;9.15;;;3.95;;
26965;SDS011;14522;52.068;4.414;2023-11-18T05:15:45;6.85;;;3.92;;
26965;SDS011;14522;52.068;4.414;2023-11-18T05:18:12;11.35;;;4.20;;
26965;SDS011;14522;52.068;4.414;2023-11-18T05:20:41;9.77;;;4.13;;
26965;SDS011;14522;52.068;4.414;2023-11-18T05:23:08;9.88;;;4.43;;
26965;SDS011;14522;52.068;4.414;2023-11-18T05:25:41;10.07;;;3.90;;
26965;SDS011;14522;52.068;4.414;2023-11-18T05:28:09;7.68;;;3.63;;
26965;SDS011;14522;52.068;4.414;2023-11-18T05:30:36;8.57;;;2.92;;
26965;SDS011;14522;52.068;4.414;2023-11-18T05:33:03;8.90;;;3.95;;
26965;SDS011;14522;52.068;4.414;2023-11-18T05:35:32;7.43;;;3.00;;
26965;SDS011;14522;52.068;4.414;2023-11-18T05:37:59;12.90;;;4.13;;
26965;SDS011;14522;52.068;4.414;2023-11-18T05:40:26;9.10;;;4.57;;
26965;SDS011;14522;52.068;4.414;2023-11-18T05:42:53;12.50;;;4.43;;
26965;SDS011;14522;52.068;4.414;2023-11-18T05:45:21;8.30;;;4.10;;
26965;SDS011;14522;52.068;4.414;2023-11-18T05:47:54;12.00;;;4.22;;
26965;SDS011;14522;52.068;4.414;2023-11-18T05:50:21;11.52;;;3.95;;
26965;SDS011;14522;52.068;4.414;2023-11-18T05:52:48;16.30;;;4.45;;
26965;SDS011;14522;52.068;4.414;2023-11-18T05:55:14;11.07;;;4.28;;
26965;SDS011;14522;52.068;4.414;2023-11-18T05:57:41;13.88;;;4.38;;
26965;SDS011;14522;52.068;4.414;2023-11-18T06:00:11;8.57;;;3.60;;
26965;SDS011;14522;52.068;4.414;2023-11-18T06:02:50;9.40;;;3.88;;
26965;SDS011;14522;52.068;4.414;2023-11-18T06:05:18;10.63;;;3.90;;
26965;SDS011;14522;52.068;4.414;2023-11-18T06:07:44;13.40;;;3.63;;
26965;SDS011;14522;52.068;4.414;2023-11-18T06:10:10;9.23;;;3.50;;
26965;SDS011;14522;52.068;4.414;2023-11-18T06:12:38;13.65;;;4.88;;
26965;SDS011;14522;52.068;4.414;2023-11-18T06:15:07;8.57;;;3.40;;
26965;SDS011;14522;52.068;4.414;2023-11-18T06:17:35;10.73;;;4.20;;
26965;SDS011;14522;52.068;4.414;2023-11-18T06:20:02;12.65;;;3.40;;
26965;SDS011;14522;52.068;4.414;2023-11-18T06:22:32;11.18;;;3.75;;
26965;SDS011;14522;52.068;4.414;2023-11-18T06:24:58;14.10;;;3.78;;
26965;SDS011;14522;52.068;4.414;2023-11-18T06:27:25;10.43;;;3.22;;
26965;SDS011;14522;52.068;4.414;2023-11-18T06:29:51;9.75;;;3.97;;
26965;SDS011;14522;52.068;4.414;2023-11-18T06:32:21;10.07;;;4.15;;
26965;SDS011;14522;52.068;4.414;2023-11-18T06:34:48;15.75;;;4.35;;
26965;SDS011;14522;52.068;4.414;2023-11-18T06:37:15;14.70;;;3.83;;
26965;SDS011;14522;52.068;4.414;2023-11-18T06:39:43;10.70;;;4.65;;
26965;SDS011;14522;52.068;4.414;2023-11-18T06:42:11;11.13;;;4.10;;
26965;SDS011;14522;52.068;4.414;2023-11-18T06:44:38;9.00;;;4.00;;
26965;SDS011;14522;52.068;4.414;2023-11-18T06:47:05;8.55;;;3.53;;
26965;SDS011;14522;52.068;4.414;2023-11-18T06:49:32;11.52;;;4.30;;
26965;SDS011;14522;52.068;4.414;2023-11-18T06:52:03;11.30;;;4.03;;
26965;SDS011;14522;52.068;4.414;2023-11-18T06:54:30;15.50;;;4.50;;
26965;SDS011;14522;52.068;4.414;2023-11-18T06:56:56;7.97;;;3.90;;
26965;SDS011;14522;52.068;4.414;2023-11-18T06:59:24;12.05;;;3.80;;
26965;SDS011;14522;52.068;4.414;2023-11-18T07:01:50;11.63;;;4.07;;
26965;SDS011;14522;52.068;4.414;2023-11-18T07:04:17;11.20;;;4.18;;
26965;SDS011;14522;52.068;4.414;2023-11-18T07:06:43;15.48;;;4.47;;
26965;SDS011;14522;52.068;4.414;2023-11-18T07:09:11;11.48;;;3.90;;
26965;SDS011;14522;52.068;4.414;2023-11-18T07:11:45;10.88;;;4.15;;
26965;SDS011;14522;52.068;4.414;2023-11-18T07:14:13;13.63;;;4.40;;
26965;SDS011;14522;52.068;4.414;2023-11-18T07:16:41;15.30;;;4.43;;
26965;SDS011;14522;52.068;4.414;2023-11-18T07:19:08;12.07;;;3.60;;
26965;SDS011;14522;52.068;4.414;2023-11-18T07:21:36;12.93;;;4.60;;
26965;SDS011;14522;52.068;4.414;2023-11-18T07:24:03;10.05;;;4.18;;
26965;SDS011;14522;52.068;4.414;2023-11-18T07:26:29;12.32;;;4.18;;
26965;SDS011;14522;52.068;4.414;2023-11-18T07:28:56;12.73;;;4.45;;
26965;SDS011;14522;52.068;4.414;2023-11-18T07:31:22;15.38;;;4.43;;
26965;SDS011;14522;52.068;4.414;2023-11-18T07:33:49;10.07;;;3.95;;
26965;SDS011;14522;52.068;4.414;2023-11-18T07:36:16;10.15;;;4.65;;
26965;SDS011;14522;52.068;4.414;2023-11-18T07:38:42;10.05;;;4.22;;
26965;SDS011;14522;52.068;4.414;2023-11-18T07:41:09;7.90;;;3.72;;
26965;SDS011;14522;52.068;4.414;2023-11-18T07:43:36;9.70;;;3.55;;
26965;SDS011;14522;52.068;4.414;2023-11-18T07:46:03;10.85;;;4.22;;
26965;SDS011;14522;52.068;4.414;2023-11-18T07:48:29;9.55;;;3.63;;
26965;SDS011;14522;52.068;4.414;2023-11-18T07:50:57;11.43;;;3.45;;
26965;SDS011;14522;52.068;4.414;2023-11-18T07:53:23;14.15;;;4.60;;
26965;SDS011;14522;52.068;4.414;2023-11-18T07:55:50;14.55;;;3.45;;
26965;SDS011;14522;52.068;4.414;2023-11-18T07:58:16;12.38;;;4.00;;
26965;SDS011;14522;52.068;4.414;2023-11-18T08:00:46;13.02;;;3.60;;
26965;SDS011;14522;52.068;4.414;2023-11-18T08:03:12;8.00;;;3.08;;
26965;SDS011;14522;52.068;4.414;2023-11-18T08:05:41;8.80;;;3.22;;
26965;SDS011;14522;52.068;4.414;2023-11-18T08:08:07;13.68;;;3.53;;
26965;SDS011;14522;52.068;4.414;2023-11-18T08:10:34;9.52;;;3.05;;
26965;SDS011;14522;52.068;4.414;2023-11-18T08:13:04;8.90;;;3.53;;
26965;SDS011;14522;52.068;4.414;2023-11-18T08:15:31;10.38;;;3.28;;
26965;SDS011;14522;52.068;4.414;2023-11-18T08:17:57;8.70;;;2.60;;
26965;SDS011;14522;52.068;4.414;2023-11-18T08:20:24;8.93;;;2.92;;
26965;SDS011;14522;52.068;4.414;2023-11-18T08:22:51;8.93;;;2.88;;
26965;SDS011;14522;52.068;4.414;2023-11-18T08:25:19;9.20;;;2.67;;
26965;SDS011;14522;52.068;4.414;2023-11-18T08:27:45;8.48;;;3.10;;
26965;SDS011;14522;52.068;4.414;2023-11-18T08:30:12;9.45;;;3.15;;
26965;SDS011;14522;52.068;4.414;2023-11-18T08:32:39;11.75;;;3.03;;
26965;SDS011;14522;52.068;4.414;2023-11-18T08:35:06;10.90;;;3.40;;
26965;SDS011;14522;52.068;4.414;2023-11-18T08:37:35;10.18;;;2.78;;
26965;SDS011;14522;52.068;4.414;2023-11-18T08:40:05;14.20;;;3.22;;
26965;SDS011;14522;52.068;4.414;2023-11-18T08:42:43;13.52;;;2.92;;
26965;SDS011;14522;52.068;4.414;2023-11-18T08:45:17;13.02;;;2.97;;
26965;SDS011;14522;52.068;4.414;2023-11-18T08:47:45;10.32;;;2.58;;
26965;SDS011;14522;52.068;4.414;2023-11-18T08:50:13;5.63;;;2.20;;
26965;SDS011;14522;52.068;4.414;2023-11-18T08:52:39;10.23;;;2.92;;
26965;SDS011;14522;52.068;4.414;2023-11-18T08:55:13;7.32;;;2.55;;
26965;SDS011;14522;52.068;4.414;2023-11-18T08:57:47;8.45;;;2.65;;
26965;SDS011;14522;52.068;4.414;2023-11-18T09:00:18;8.43;;;2.28;;
26965;SDS011;14522;52.068;4.414;2023-11-18T09:03:04;8.45;;;2.13;;
26965;SDS011;14522;52.068;4.414;2023-11-18T09:05:32;8.07;;;2.47;;
26965;SDS011;14522;52.068;4.414;2023-11-18T09:07:59;6.13;;;1.52;;
26965;SDS011;14522;52.068;4.414;2023-11-18T09:10:26;10.38;;;2.55;;
26965;SDS011;14522;52.068;4.414;2023-11-18T09:12:54;12.07;;;2.47;;
26965;SDS011;14522;52.068;4.414;2023-11-18T09:15:23;6.28;;;2.05;;
26965;SDS011;14522;52.068;4.414;2023-11-18T09:17:49;5.00;;;2.25;;
26965;SDS011;14522;52.068;4.414;2023-11-18T09:20:16;7.88;;;2.65;;
26965;SDS011;14522;52.068;4.414;2023-11-18T09:22:48;9.57;;;2.42;;
26965;SDS011;14522;52.068;4.414;2023-11-18T09:25:15;8.50;;;2.30;;
26965;SDS011;14522;52.068;4.414;2023-11-18T09:27:41;10.50;;;2.55;;
26965;SDS011;14522;52.068;4.414;2023-11-18T09:30:08;12.93;;;2.92;;
26965;SDS011;14522;52.068;4.414;2023-11-18T09:32:40;8.50;;;2.15;;
26965;SDS011;14522;52.068;4.414;2023-11-18T09:35:08;9.77;;;3.28;;
26965;SDS011;14522;52.068;4.414;2023-11-18T09:37:36;9.50;;;2.40;;
26965;SDS011;14522;52.068;4.414;2023-11-18T09:40:07;8.48;;;3.05;;
26965;SDS011;14522;52.068;4.414;2023-11-18T09:42:40;7.45;;;2.03;;
26965;SDS011;14522;52.068;4.414;2023-11-18T09:45:07;10.35;;;2.42;;
26965;SDS011;14522;52.068;4.414;2023-11-18T09:47:42;15.05;;;2.50;;
26965;SDS011;14522;52.068;4.414;2023-11-18T09:50:10;7.20;;;2.30;;
26965;SDS011;14522;52.068;4.414;2023-11-18T09:52:39;9.40;;;2.78;;
26965;SDS011;14522;52.068;4.414;2023-11-18T09:55:15;6.38;;;1.75;;
26965;SDS011;14522;52.068;4.414;2023-11-18T09:57:55;6.35;;;2.15;;
26965;SDS011;14522;52.068;4.414;2023-11-18T10:00:24;6.95;;;2.20;;
26965;SDS011;14522;52.068;4.414;2023-11-18T10:02:53;8.38;;;2.08;;
26965;SDS011;14522;52.068;4.414;2023-11-18T10:05:22;7.30;;;2.05;;
26965;SDS011;14522;52.068;4.414;2023-11-18T10:07:49;6.85;;;1.45;;
26965;SDS011;14522;52.068;4.414;2023-11-18T10:10:16;11.88;;;3.25;;
26965;SDS011;14522;52.068;4.414;2023-11-18T10:12:49;6.20;;;1.67;;
26965;SDS011;14522;52.068;4.414;2023-11-18T10:15:20;4.85;;;1.55;;
26965;SDS011;14522;52.068;4.414;2023-11-18T10:17:50;4.90;;;1.73;;
26965;SDS011;14522;52.068;4.414;2023-11-18T10:23:06;6.93;;;1.80;;
26965;SDS011;14522;52.068;4.414;2023-11-18T10:25:58;5.38;;;1.23;;
26965;SDS011;14522;52.068;4.414;2023-11-18T10:30:50;5.10;;;2.30;;
26965;SDS011;14522;52.068;4.414;2023-11-18T10:33:17;5.35;;;1.67;;
26965;SDS011;14522;52.068;4.414;2023-11-18T10:35:50;7.57;;;1.50;;
26965;SDS011;14522;52.068;4.414;2023-11-18T10:38:22;6.53;;;1.48;;
26965;SDS011;14522;52.068;4.414;2023-11-18T10:40:52;6.18;;;1.65;;
26965;SDS011;14522;52.068;4.414;2023-11-18T10:43:19;7.97;;;1.65;;
26965;SDS011;14522;52.068;4.414;2023-11-18T10:46:03;4.75;;;1.23;;
26965;SDS011;14522;52.068;4.414;2023-11-18T10:48:30;5.22;;;1.35;;
26965;SDS011;14522;52.068;4.414;2023-11-18T10:50:56;7.78;;;1.48;;
26965;SDS011;14522;52.068;4.414;2023-11-18T10:53:25;6.22;;;1.67;;
26965;SDS011;14522;52.068;4.414;2023-11-18T10:55:54;4.22;;;1.50;;
26965;SDS011;14522;52.068;4.414;2023-11-18T10:58:20;5.90;;;1.75;;
26965;SDS011;14522;52.068;4.414;2023-11-18T11:03:15;6.30;;;1.30;;
26965;SDS011;14522;52.068;4.414;2023-11-18T11:05:42;4.55;;;1.30;;
26965;SDS011;14522;52.068;4.414;2023-11-18T11:08:16;3.20;;;1.27;;
26965;SDS011;14522;52.068;4.414;2023-11-18T11:10:54;5.82;;;1.45;;
26965;SDS011;14522;52.068;4.414;2023-11-18T11:13:24;3.58;;;1.27;;
26965;SDS011;14522;52.068;4.414;2023-11-18T11:15:51;4.75;;;1.63;;
26965;SDS011;14522;52.068;4.414;2023-11-18T11:18:23;4.95;;;1.20;;
26965;SDS011;14522;52.068;4.414;2023-11-18T11:21:29;2.33;;;0.95;;
26965;SDS011;14522;52.068;4.414;2023-11-18T11:23:55;7.28;;;1.52;;
26965;SDS011;14522;52.068;4.414;2023-11-18T11:26:40;4.37;;;1.30;;
26965;SDS011;14522;52.068;4.414;2023-11-18T11:29:17;3.72;;;1.15;;
26965;SDS011;14522;52.068;4.414;2023-11-18T11:31:48;4.32;;;1.27;;
26965;SDS011;14522;52.068;4.414;2023-11-18T11:34:19;1.90;;;1.08;;
26965;SDS011;14522;52.068;4.414;2023-11-18T11:36:47;4.40;;;1.27;;
26965;SDS011;14522;52.068;4.414;2023-11-18T11:39:17;2.10;;;1.10;;
26965;SDS011;14522;52.068;4.414;2023-11-18T11:41:50;7.55;;;0.95;;
26965;SDS011;14522;52.068;4.414;2023-11-18T11:44:17;4.30;;;1.02;;
26965;SDS011;14522;52.068;4.414;2023-11-18T11:46:47;1.80;;;0.73;;
26965;SDS011;14522;52.068;4.414;2023-11-18T11:49:19;1.95;;;0.98;;
26965;SDS011;14522;52.068;4.414;2023-11-18T11:51:52;4.07;;;0.90;;
26965;SDS011;14522;52.068;4.414;2023-11-18T11:54:29;4.25;;;1.33;;
26965;SDS011;14522;52.068;4.414;2023-11-18T11:57:03;1.98;;;0.90;;
26965;SDS011;14522;52.068;4.414;2023-11-18T12:02:04;3.95;;;0.85;;
26965;SDS011;14522;52.068;4.414;2023-11-18T12:04:34;4.40;;;0.90;;
26965;SDS011;14522;52.068;4.414;2023-11-18T12:07:07;1.80;;;0.70;;
26965;SDS011;14522;52.068;4.414;2023-11-18T12:10:09;4.15;;;0.95;;
26965;SDS011;14522;52.068;4.414;2023-11-18T12:12:32;2.65;;;0.90;;
26965;SDS011;14522;52.068;4.414;2023-11-18T12:15:00;3.22;;;0.90;;
26965;SDS011;14522;52.068;4.414;2023-11-18T12:20:43;0.77;;;0.50;;
26965;SDS011;14522;52.068;4.414;2023-11-18T12:23:23;2.55;;;0.70;;
26965;SDS011;14522;52.068;4.414;2023-11-18T12:25:52;3.45;;;0.77;;
26965;SDS011;14522;52.068;4.414;2023-11-18T12:31:01;1.15;;;0.60;;
26965;SDS011;14522;52.068;4.414;2023-11-18T12:33:59;1.27;;;0.60;;
26965;SDS011;14522;52.068;4.414;2023-11-18T12:39:26;0.50;;;0.40;;
26965;SDS011;14522;52.068;4.414;2023-11-18T12:42:08;0.85;;;0.57;;
26965;SDS011;14522;52.068;4.414;2023-11-18T12:47:25;0.77;;;0.40;;
26965;SDS011;14522;52.068;4.414;2023-11-18T12:49:55;1.27;;;0.52;;
26965;SDS011;14522;52.068;4.414;2023-11-18T12:52:21;0.80;;;0.50;;
26965;SDS011;14522;52.068;4.414;2023-11-18T12:54:49;0.38;;;0.28;;
26965;SDS011;14522;52.068;4.414;2023-11-18T12:57:21;0.50;;;0.40;;
26965;SDS011;14522;52.068;4.414;2023-11-18T12:59:51;0.63;;;0.50;;
26965;SDS011;14522;52.068;4.414;2023-11-18T13:02:17;0.32;;;0.30;;
26965;SDS011;14522;52.068;4.414;2023-11-18T13:04:47;1.20;;;0.50;;
26965;SDS011;14522;52.068;4.414;2023-11-18T13:07:16;0.85;;;0.50;;
26965;SDS011;14522;52.068;4.414;2023-11-18T13:09:47;0.88;;;0.30;;
26965;SDS011;14522;52.068;4.414;2023-11-18T13:12:14;1.20;;;0.43;;
26965;SDS011;14522;52.068;4.414;2023-11-18T13:14:42;0.50;;;0.35;;
26965;SDS011;14522;52.068;4.414;2023-11-18T13:17:09;0.60;;;0.50;;
26965;SDS011;14522;52.068;4.414;2023-11-18T13:19:37;1.35;;;0.50;;
26965;SDS011;14522;52.068;4.414;2023-11-18T13:22:05;0.90;;;0.30;;
26965;SDS011;14522;52.068;4.414;2023-11-18T13:24:34;0.57;;;0.32;;
26965;SDS011;14522;52.068;4.414;2023-11-18T13:27:04;0.90;;;0.52;;
26965;SDS011;14522;52.068;4.414;2023-11-18T13:29:31;0.50;;;0.40;;
26965;SDS011;14522;52.068;4.414;2023-11-18T13:31:58;1.38;;;0.60;;
26965;SDS011;14522;52.068;4.414;2023-11-18T13:34:26;0.57;;;0.40;;
26965;SDS011;14522;52.068;4.414;2023-11-18T13:36:54;0.80;;;0.30;;
26965;SDS011;14522;52.068;4.414;2023-11-18T13:39:21;0.90;;;0.40;;
26965;SDS011;14522;52.068;4.414;2023-11-18T13:41:48;0.98;;;0.30;;
26965;SDS011;14522;52.068;4.414;2023-11-18T13:44:31;2.63;;;0.38;;
26965;SDS011;14522;52.068;4.414;2023-11-18T13:47:00;0.73;;;0.30;;
26965;SDS011;14522;52.068;4.414;2023-11-18T13:49:28;0.82;;;0.40;;
26965;SDS011;14522;52.068;4.414;2023-11-18T13:51:56;0.47;;;0.30;;
26965;SDS011;14522;52.068;4.414;2023-11-18T13:54:22;0.35;;;0.30;;
26965;SDS011;14522;52.068;4.414;2023-11-18T13:56:53;0.77;;;0.40;;
26965;SDS011;14522;52.068;4.414;2023-11-18T13:59:19;0.93;;;0.30;;
26965;SDS011;14522;52.068;4.414;2023-11-18T14:01:46;1.00;;;0.40;;
26965;SDS011;14522;52.068;4.414;2023-11-18T14:04:12;0.35;;;0.20;;
26965;SDS011;14522;52.068;4.414;2023-11-18T14:06:39;0.30;;;0.25;;
26965;SDS011;14522;52.068;4.414;2023-11-18T14:09:05;0.30;;;0.30;;
26965;SDS011;14522;52.068;4.414;2023-11-18T14:11:32;0.55;;;0.20;;
26965;SDS011;14522;52.068;4.414;2023-11-18T14:14:00;0.80;;;0.20;;
26965;SDS011;14522;52.068;4.414;2023-11-18T14:16:27;0.93;;;0.30;;
26965;SDS011;14522;52.068;4.414;2023-11-18T14:18:53;0.20;;;0.20;;
26965;SDS011;14522;52.068;4.414;2023-11-18T14:21:20;0.95;;;0.40;;
26965;SDS011;14522;52.068;4.414;2023-11-18T14:23:48;0.52;;;0.20;;
26965;SDS011;14522;52.068;4.414;2023-11-18T14:26:14;0.95;;;0.38;;
26965;SDS011;14522;52.068;4.414;2023-11-18T14:28:41;0.70;;;0.30;;
26965;SDS011;14522;52.068;4.414;2023-11-18T14:31:08;0.52;;;0.20;;
26965;SDS011;14522;52.068;4.414;2023-11-18T14:33:36;0.63;;;0.40;;
26965;SDS011;14522;52.068;4.414;2023-11-18T14:36:03;0.52;;;0.20;;
26965;SDS011;14522;52.068;4.414;2023-11-18T14:38:32;0.45;;;0.40;;
26965;SDS011;14522;52.068;4.414;2023-11-18T14:41:00;0.55;;;0.30;;
26965;SDS011;14522;52.068;4.414;2023-11-18T14:43:27;2.40;;;0.40;;
26965;SDS011;14522;52.068;4.414;2023-11-18T14:45:54;0.32;;;0.20;;
26965;SDS011;14522;52.068;4.414;2023-11-18T14:48:20;0.52;;;0.35;;
26965;SDS011;14522;52.068;4.414;2023-11-18T14:50:47;0.30;;;0.30;;
26965;SDS011;14522;52.068;4.414;2023-11-18T14:53:14;0.63;;;0.25;;
26965;SDS011;14522;52.068;4.414;2023-11-18T14:55:40;0.25;;;0.25;;
26965;SDS011;14522;52.068;4.414;2023-11-18T14:58:08;0.20;;;0.10;;
26965;SDS011;14522;52.068;4.414;2023-11-18T15:00:34;0.50;;;0.30;;
26965;SDS011;14522;52.068;4.414;2023-11-18T15:03:01;0.40;;;0.20;;
26965;SDS011;14522;52.068;4.414;2023-11-18T15:05:28;0.75;;;0.32;;
26965;SDS011;14522;52.068;4.414;2023-11-18T15:07:55;0.40;;;0.22;;
26965;SDS011;14522;52.068;4.414;2023-11-18T15:10:23;0.70;;;0.20;;
26965;SDS011;14522;52.068;4.414;2023-11-18T15:12:57;0.25;;;0.20;;
26965;SDS011;14522;52.068;4.414;2023-11-18T15:15:31;0.50;;;0.20;;
26965;SDS011;14522;52.068;4.414;2023-11-18T15:17:59;0.40;;;0.30;;